sensor_id;sensor_type;location;lat;lon;timestamp;temperature;humidity
10905;DHT22;5505;51.450;9.254;2024-03-08T00:01:06;-0.70;99.90
10905;DHT22;5505;51.450;9.254;2024-03-08T00:03:53;-0.70;99.90
10905;DHT22;5505;51.450;9.254;2024-03-08T00:06:40;0.00;99.90
10905;DHT22;5505;51.450;9.254;2024-03-08T00:09:26;-0.70;99.90
10905;DHT22;5505;51.450;9.254;2024-03-08T00:12:13;-0.70;99.90
10905;DHT22;5505;51.450;9.254;2024-03-08T00:15:02;-0.90;99.90
10905;DHT22;5505;51.450;9.254;2024-03-08T00:17:49;-0.60;99.90
10905;DHT22;5505;51.450;9.254;2024-03-08T00:20:36;-0.60;99.90
10905;DHT22;5505;51.450;9.254;2024-03-08T00:23:22;-0.50;99.90
10905;DHT22;5505;51.450;9.254;2024-03-08T00:26:09;-0.40;99.90
10905;DHT22;5505;51.450;9.254;2024-03-08T00:28:57;-0.30;99.90
10905;DHT22;5505;51.450;9.254;2024-03-08T00:31:45;-0.20;99.90
10905;DHT22;5505;51.450;9.254;2024-03-08T00:34:32;-0.20;99.90
10905;DHT22;5505;51.450;9.254;2024-03-08T00:37:20;1.20;99.90
10905;DHT22;5505;51.450;9.254;2024-03-08T00:40:08;0.10;99.90
10905;DHT22;5505;51.450;9.254;2024-03-08T00:42:56;-0.30;99.90
10905;DHT22;5505;51.450;9.254;2024-03-08T00:45:43;-0.30;99.90
10905;DHT22;5505;51.450;9.254;2024-03-08T00:48:31;-0.20;99.90
10905;DHT22;5505;51.450;9.254;2024-03-08T00:51:18;-0.30;99.90
10905;DHT22;5505;51.450;9.254;2024-03-08T00:54:05;-0.30;99.90
10905;DHT22;5505;51.450;9.254;2024-03-08T00:56:51;-0.30;99.90
10905;DHT22;5505;51.450;9.254;2024-03-08T00:59:38;0.50;99.90
10905;DHT22;5505;51.450;9.254;2024-03-08T01:02:25;-0.30;99.90
10905;DHT22;5505;51.450;9.254;2024-03-08T01:05:13;-0.20;99.90
10905;DHT22;5505;51.450;9.254;2024-03-08T01:08:00;-0.20;99.90
10905;DHT22;5505;51.450;9.254;2024-03-08T01:10:48;-0.10;99.90
10905;DHT22;5505;51.450;9.254;2024-03-08T01:13:36;-0.10;99.90
10905;DHT22;5505;51.450;9.254;2024-03-08T01:16:22;0.00;99.90
10905;DHT22;5505;51.450;9.254;2024-03-08T01:19:09;0.00;99.90
10905;DHT22;5505;51.450;9.254;2024-03-08T01:21:57;0.10;99.90
10905;DHT22;5505;51.450;9.254;2024-03-08T01:24:44;0.00;99.90
10905;DHT22;5505;51.450;9.254;2024-03-08T01:27:31;0.00;99.90
10905;DHT22;5505;51.450;9.254;2024-03-08T01:30:17;0.10;99.90
10905;DHT22;5505;51.450;9.254;2024-03-08T01:33:04;0.10;99.90
10905;DHT22;5505;51.450;9.254;2024-03-08T01:35:51;0.10;99.90
10905;DHT22;5505;51.450;9.254;2024-03-08T01:38:39;0.10;99.90
10905;DHT22;5505;51.450;9.254;2024-03-08T01:41:26;1.10;99.90
10905;DHT22;5505;51.450;9.254;2024-03-08T01:44:15;0.10;99.90
10905;DHT22;5505;51.450;9.254;2024-03-08T01:47:03;0.00;99.90
10905;DHT22;5505;51.450;9.254;2024-03-08T01:49:50;0.00;99.90
10905;DHT22;5505;51.450;9.254;2024-03-08T01:52:37;0.00;99.90
10905;DHT22;5505;51.450;9.254;2024-03-08T01:55:26;-0.10;99.90
10905;DHT22;5505;51.450;9.254;2024-03-08T01:58:13;-0.10;99.90
10905;DHT22;5505;51.450;9.254;2024-03-08T02:01:01;-0.10;99.90
10905;DHT22;5505;51.450;9.254;2024-03-08T02:03:49;-0.20;99.90
10905;DHT22;5505;51.450;9.254;2024-03-08T02:06:36;-0.20;99.90
10905;DHT22;5505;51.450;9.254;2024-03-08T02:09:23;-0.20;99.90
10905;DHT22;5505;51.450;9.254;2024-03-08T02:12:12;-0.20;99.90
10905;DHT22;5505;51.450;9.254;2024-03-08T02:14:59;-0.20;99.90
10905;DHT22;5505;51.450;9.254;2024-03-08T02:17:46;-0.30;99.90
10905;DHT22;5505;51.450;9.254;2024-03-08T02:20:34;-0.40;99.90
10905;DHT22;5505;51.450;9.254;2024-03-08T02:23:21;-0.40;99.90
10905;DHT22;5505;51.450;9.254;2024-03-08T02:26:08;-0.50;99.90
10905;DHT22;5505;51.450;9.254;2024-03-08T02:28:55;-0.30;99.90
10905;DHT22;5505;51.450;9.254;2024-03-08T02:31:42;-0.60;99.90
10905;DHT22;5505;51.450;9.254;2024-03-08T02:34:28;-0.60;99.90
10905;DHT22;5505;51.450;9.254;2024-03-08T02:37:18;-0.70;99.90
10905;DHT22;5505;51.450;9.254;2024-03-08T02:40:05;-0.70;99.90
10905;DHT22;5505;51.450;9.254;2024-03-08T02:42:53;-0.70;99.90
10905;DHT22;5505;51.450;9.254;2024-03-08T02:45:39;-0.60;99.90
10905;DHT22;5505;51.450;9.254;2024-03-08T02:48:27;-0.60;99.90
10905;DHT22;5505;51.450;9.254;2024-03-08T02:51:14;-0.60;99.90
10905;DHT22;5505;51.450;9.254;2024-03-08T02:54:02;-0.50;99.90
10905;DHT22;5505;51.450;9.254;2024-03-08T02:56:50;-0.70;99.90
10905;DHT22;5505;51.450;9.254;2024-03-08T02:59:37;-0.70;99.90
10905;DHT22;5505;51.450;9.254;2024-03-08T03:02:25;-0.60;99.90
10905;DHT22;5505;51.450;9.254;2024-03-08T03:05:12;-0.60;99.90
10905;DHT22;5505;51.450;9.254;2024-03-08T03:07:59;0.20;99.90
10905;DHT22;5505;51.450;9.254;2024-03-08T03:10:47;-0.60;99.90
10905;DHT22;5505;51.450;9.254;2024-03-08T03:13:34;-0.50;99.90
10905;DHT22;5505;51.450;9.254;2024-03-08T03:16:21;-0.60;99.90
10905;DHT22;5505;51.450;9.254;2024-03-08T03:19:08;-0.60;99.90
10905;DHT22;5505;51.450;9.254;2024-03-08T03:21:55;-0.70;99.90
10905;DHT22;5505;51.450;9.254;2024-03-08T03:24:42;-0.70;99.90
10905;DHT22;5505;51.450;9.254;2024-03-08T03:27:30;-0.70;99.90
10905;DHT22;5505;51.450;9.254;2024-03-08T03:30:17;-0.80;99.90
10905;DHT22;5505;51.450;9.254;2024-03-08T03:33:07;-0.80;99.90
10905;DHT22;5505;51.450;9.254;2024-03-08T03:35:55;-0.90;99.90
10905;DHT22;5505;51.450;9.254;2024-03-08T03:38:42;-0.90;99.90
10905;DHT22;5505;51.450;9.254;2024-03-08T03:41:29;-1.00;99.90
10905;DHT22;5505;51.450;9.254;2024-03-08T03:44:17;-1.10;99.90
10905;DHT22;5505;51.450;9.254;2024-03-08T03:47:04;-1.10;99.90
10905;DHT22;5505;51.450;9.254;2024-03-08T03:49:52;-1.20;99.90
10905;DHT22;5505;51.450;9.254;2024-03-08T03:52:39;-1.20;99.90
10905;DHT22;5505;51.450;9.254;2024-03-08T03:55:27;-1.30;99.90
10905;DHT22;5505;51.450;9.254;2024-03-08T03:58:15;-1.50;99.90
10905;DHT22;5505;51.450;9.254;2024-03-08T04:01:04;-1.30;99.90
10905;DHT22;5505;51.450;9.254;2024-03-08T04:03:51;-1.40;99.90
10905;DHT22;5505;51.450;9.254;2024-03-08T04:06:38;-1.40;99.90
10905;DHT22;5505;51.450;9.254;2024-03-08T04:09:25;-1.40;99.90
10905;DHT22;5505;51.450;9.254;2024-03-08T04:12:12;-1.50;99.90
10905;DHT22;5505;51.450;9.254;2024-03-08T04:15:01;-1.60;99.90
10905;DHT22;5505;51.450;9.254;2024-03-08T04:17:49;-1.60;99.90
10905;DHT22;5505;51.450;9.254;2024-03-08T04:20:36;-1.60;99.90
10905;DHT22;5505;51.450;9.254;2024-03-08T04:23:23;-1.70;99.90
10905;DHT22;5505;51.450;9.254;2024-03-08T04:26:10;-1.70;99.90
10905;DHT22;5505;51.450;9.254;2024-03-08T04:28:57;-1.70;99.90
10905;DHT22;5505;51.450;9.254;2024-03-08T04:31:44;-1.70;99.90
10905;DHT22;5505;51.450;9.254;2024-03-08T04:34:32;-1.40;99.90
10905;DHT22;5505;51.450;9.254;2024-03-08T04:37:19;-1.80;99.90
10905;DHT22;5505;51.450;9.254;2024-03-08T04:40:07;-0.90;99.90
10905;DHT22;5505;51.450;9.254;2024-03-08T04:42:54;-1.90;99.90
10905;DHT22;5505;51.450;9.254;2024-03-08T04:45:41;-1.20;99.90
10905;DHT22;5505;51.450;9.254;2024-03-08T04:48:29;-1.70;99.90
10905;DHT22;5505;51.450;9.254;2024-03-08T04:51:17;-1.70;99.90
10905;DHT22;5505;51.450;9.254;2024-03-08T04:54:05;-1.70;99.90
10905;DHT22;5505;51.450;9.254;2024-03-08T04:56:51;-1.60;99.90
10905;DHT22;5505;51.450;9.254;2024-03-08T04:59:39;-1.70;99.90
10905;DHT22;5505;51.450;9.254;2024-03-08T05:02:26;-1.70;99.90
10905;DHT22;5505;51.450;9.254;2024-03-08T05:05:13;-1.80;99.90
10905;DHT22;5505;51.450;9.254;2024-03-08T05:08:02;-1.80;99.90
10905;DHT22;5505;51.450;9.254;2024-03-08T05:10:49;-1.80;99.90
10905;DHT22;5505;51.450;9.254;2024-03-08T05:13:36;-1.80;99.90
10905;DHT22;5505;51.450;9.254;2024-03-08T05:16:23;-1.80;99.90
10905;DHT22;5505;51.450;9.254;2024-03-08T05:19:10;-1.70;99.90
10905;DHT22;5505;51.450;9.254;2024-03-08T05:21:56;-1.70;99.90
10905;DHT22;5505;51.450;9.254;2024-03-08T05:24:45;-1.60;99.90
10905;DHT22;5505;51.450;9.254;2024-03-08T05:27:32;-1.70;99.90
10905;DHT22;5505;51.450;9.254;2024-03-08T05:30:18;-1.70;99.90
10905;DHT22;5505;51.450;9.254;2024-03-08T05:33:07;-1.70;99.90
10905;DHT22;5505;51.450;9.254;2024-03-08T05:35:55;-1.60;99.90
10905;DHT22;5505;51.450;9.254;2024-03-08T05:38:42;-1.60;99.90
10905;DHT22;5505;51.450;9.254;2024-03-08T05:41:30;-1.60;99.90
10905;DHT22;5505;51.450;9.254;2024-03-08T05:44:17;-1.60;99.90
10905;DHT22;5505;51.450;9.254;2024-03-08T05:47:04;-1.60;99.90
10905;DHT22;5505;51.450;9.254;2024-03-08T05:49:52;-1.60;99.90
10905;DHT22;5505;51.450;9.254;2024-03-08T05:52:40;-1.60;99.90
10905;DHT22;5505;51.450;9.254;2024-03-08T05:55:26;-1.70;99.90
10905;DHT22;5505;51.450;9.254;2024-03-08T05:58:16;-1.70;99.90
10905;DHT22;5505;51.450;9.254;2024-03-08T06:01:03;-1.80;99.90
10905;DHT22;5505;51.450;9.254;2024-03-08T06:03:53;-1.80;99.90
10905;DHT22;5505;51.450;9.254;2024-03-08T06:06:41;-1.80;99.90
10905;DHT22;5505;51.450;9.254;2024-03-08T06:09:28;-1.80;99.90
10905;DHT22;5505;51.450;9.254;2024-03-08T06:12:15;-1.80;99.90
10905;DHT22;5505;51.450;9.254;2024-03-08T06:15:06;-1.20;99.90
10905;DHT22;5505;51.450;9.254;2024-03-08T06:17:54;-1.80;99.90
10905;DHT22;5505;51.450;9.254;2024-03-08T06:20:41;-1.70;99.90
10905;DHT22;5505;51.450;9.254;2024-03-08T06:23:31;-1.70;99.90
10905;DHT22;5505;51.450;9.254;2024-03-08T06:26:17;-1.60;99.90
10905;DHT22;5505;51.450;9.254;2024-03-08T06:29:04;-1.50;99.90
10905;DHT22;5505;51.450;9.254;2024-03-08T06:31:53;-1.40;99.90
10905;DHT22;5505;51.450;9.254;2024-03-08T06:34:42;-1.30;99.90
10905;DHT22;5505;51.450;9.254;2024-03-08T06:37:31;-1.20;99.90
10905;DHT22;5505;51.450;9.254;2024-03-08T06:40:18;-1.10;99.90
10905;DHT22;5505;51.450;9.254;2024-03-08T06:43:05;-1.10;99.90
10905;DHT22;5505;51.450;9.254;2024-03-08T06:45:52;-1.00;99.90
10905;DHT22;5505;51.450;9.254;2024-03-08T06:48:40;-1.00;99.90
10905;DHT22;5505;51.450;9.254;2024-03-08T06:51:27;-0.90;99.90
10905;DHT22;5505;51.450;9.254;2024-03-08T06:54:14;1.20;99.90
10905;DHT22;5505;51.450;9.254;2024-03-08T06:57:01;-0.70;99.90
10905;DHT22;5505;51.450;9.254;2024-03-08T06:59:49;-0.60;99.90
10905;DHT22;5505;51.450;9.254;2024-03-08T07:02:37;-0.50;99.90
10905;DHT22;5505;51.450;9.254;2024-03-08T07:05:27;-0.40;99.90
10905;DHT22;5505;51.450;9.254;2024-03-08T07:08:14;-0.30;99.90
10905;DHT22;5505;51.450;9.254;2024-03-08T07:11:02;-0.50;99.90
10905;DHT22;5505;51.450;9.254;2024-03-08T07:13:49;-0.10;99.90
10905;DHT22;5505;51.450;9.254;2024-03-08T07:16:36;0.00;99.90
10905;DHT22;5505;51.450;9.254;2024-03-08T07:19:25;0.10;99.90
10905;DHT22;5505;51.450;9.254;2024-03-08T07:22:13;0.20;99.90
10905;DHT22;5505;51.450;9.254;2024-03-08T07:25:00;0.40;99.90
10905;DHT22;5505;51.450;9.254;2024-03-08T07:28:05;0.50;99.90
10905;DHT22;5505;51.450;9.254;2024-03-08T07:30:53;0.60;99.90
10905;DHT22;5505;51.450;9.254;2024-03-08T07:33:53;0.80;99.90
10905;DHT22;5505;51.450;9.254;2024-03-08T07:36:40;0.90;99.90
10905;DHT22;5505;51.450;9.254;2024-03-08T07:39:28;1.00;99.90
10905;DHT22;5505;51.450;9.254;2024-03-08T07:42:15;1.50;99.90
10905;DHT22;5505;51.450;9.254;2024-03-08T07:45:03;1.30;99.90
10905;DHT22;5505;51.450;9.254;2024-03-08T07:47:52;1.40;99.90
10905;DHT22;5505;51.450;9.254;2024-03-08T07:50:41;1.40;99.90
10905;DHT22;5505;51.450;9.254;2024-03-08T07:53:28;1.60;99.90
10905;DHT22;5505;51.450;9.254;2024-03-08T07:56:16;1.60;99.90
10905;DHT22;5505;51.450;9.254;2024-03-08T07:59:04;1.50;99.90
10905;DHT22;5505;51.450;9.254;2024-03-08T08:01:52;1.50;99.90
10905;DHT22;5505;51.450;9.254;2024-03-08T08:04:38;1.60;99.90
10905;DHT22;5505;51.450;9.254;2024-03-08T08:07:25;2.00;99.90
10905;DHT22;5505;51.450;9.254;2024-03-08T08:10:13;1.70;99.90
10905;DHT22;5505;51.450;9.254;2024-03-08T08:13:05;1.70;99.90
10905;DHT22;5505;51.450;9.254;2024-03-08T08:15:52;1.70;99.90
10905;DHT22;5505;51.450;9.254;2024-03-08T08:18:39;2.00;99.90
10905;DHT22;5505;51.450;9.254;2024-03-08T08:21:26;3.00;99.90
10905;DHT22;5505;51.450;9.254;2024-03-08T08:24:13;2.00;99.90
10905;DHT22;5505;51.450;9.254;2024-03-08T08:27:00;2.10;99.90
10905;DHT22;5505;51.450;9.254;2024-03-08T08:29:48;2.30;99.90
10905;DHT22;5505;51.450;9.254;2024-03-08T08:32:35;2.50;99.90
10905;DHT22;5505;51.450;9.254;2024-03-08T08:35:22;3.40;99.90
10905;DHT22;5505;51.450;9.254;2024-03-08T08:38:09;2.70;99.90
10905;DHT22;5505;51.450;9.254;2024-03-08T08:40:57;2.80;99.90
10905;DHT22;5505;51.450;9.254;2024-03-08T08:43:44;2.80;99.90
10905;DHT22;5505;51.450;9.254;2024-03-08T08:46:32;2.80;99.90
10905;DHT22;5505;51.450;9.254;2024-03-08T08:49:20;2.90;99.90
10905;DHT22;5505;51.450;9.254;2024-03-08T08:52:07;3.00;99.90
10905;DHT22;5505;51.450;9.254;2024-03-08T08:54:54;3.10;99.90
10905;DHT22;5505;51.450;9.254;2024-03-08T08:57:42;3.10;99.90
10905;DHT22;5505;51.450;9.254;2024-03-08T09:00:29;3.60;99.90
10905;DHT22;5505;51.450;9.254;2024-03-08T09:03:18;3.20;99.90
10905;DHT22;5505;51.450;9.254;2024-03-08T09:06:06;3.40;99.90
10905;DHT22;5505;51.450;9.254;2024-03-08T09:08:55;3.40;99.90
10905;DHT22;5505;51.450;9.254;2024-03-08T09:11:42;3.50;99.90
10905;DHT22;5505;51.450;9.254;2024-03-08T09:14:28;3.60;99.90
10905;DHT22;5505;51.450;9.254;2024-03-08T09:17:15;3.80;99.90
10905;DHT22;5505;51.450;9.254;2024-03-08T09:20:08;3.80;99.90
10905;DHT22;5505;51.450;9.254;2024-03-08T09:22:55;3.90;99.90
10905;DHT22;5505;51.450;9.254;2024-03-08T09:25:42;4.80;99.90
10905;DHT22;5505;51.450;9.254;2024-03-08T09:28:29;4.10;99.90
10905;DHT22;5505;51.450;9.254;2024-03-08T09:31:16;4.10;99.90
10905;DHT22;5505;51.450;9.254;2024-03-08T09:34:03;4.20;99.90
10905;DHT22;5505;51.450;9.254;2024-03-08T09:36:51;4.30;99.90
10905;DHT22;5505;51.450;9.254;2024-03-08T09:39:38;4.50;99.90
10905;DHT22;5505;51.450;9.254;2024-03-08T09:42:25;6.40;99.90
10905;DHT22;5505;51.450;9.254;2024-03-08T09:45:12;5.30;99.90
10905;DHT22;5505;51.450;9.254;2024-03-08T09:48:01;5.80;99.90
10905;DHT22;5505;51.450;9.254;2024-03-08T09:50:48;6.60;99.90
10905;DHT22;5505;51.450;9.254;2024-03-08T09:53:37;5.00;99.90
10905;DHT22;5505;51.450;9.254;2024-03-08T09:56:24;5.00;99.90
10905;DHT22;5505;51.450;9.254;2024-03-08T09:59:10;5.10;99.90
10905;DHT22;5505;51.450;9.254;2024-03-08T10:02:26;5.10;99.90
10905;DHT22;5505;51.450;9.254;2024-03-08T10:05:13;4.80;99.90
10905;DHT22;5505;51.450;9.254;2024-03-08T10:08:00;4.90;99.90
10905;DHT22;5505;51.450;9.254;2024-03-08T10:10:51;6.30;99.90
10905;DHT22;5505;51.450;9.254;2024-03-08T10:13:38;5.10;99.90
10905;DHT22;5505;51.450;9.254;2024-03-08T10:16:27;5.20;99.90
10905;DHT22;5505;51.450;9.254;2024-03-08T10:19:14;5.70;99.90
10905;DHT22;5505;51.450;9.254;2024-03-08T10:22:01;5.30;99.90
10905;DHT22;5505;51.450;9.254;2024-03-08T10:24:50;5.30;99.90
10905;DHT22;5505;51.450;9.254;2024-03-08T10:27:38;5.40;99.90
10905;DHT22;5505;51.450;9.254;2024-03-08T10:30:26;5.60;99.90
10905;DHT22;5505;51.450;9.254;2024-03-08T10:33:13;5.60;99.90
10905;DHT22;5505;51.450;9.254;2024-03-08T10:36:00;5.50;99.90
10905;DHT22;5505;51.450;9.254;2024-03-08T10:38:51;5.60;99.90
10905;DHT22;5505;51.450;9.254;2024-03-08T10:41:40;5.70;99.90
10905;DHT22;5505;51.450;9.254;2024-03-08T10:44:44;6.30;99.90
10905;DHT22;5505;51.450;9.254;2024-03-08T10:47:40;5.70;99.90
10905;DHT22;5505;51.450;9.254;2024-03-08T10:50:27;5.80;99.90
10905;DHT22;5505;51.450;9.254;2024-03-08T10:53:15;5.70;99.90
10905;DHT22;5505;51.450;9.254;2024-03-08T10:56:04;5.80;99.90
10905;DHT22;5505;51.450;9.254;2024-03-08T10:58:52;5.80;99.90
10905;DHT22;5505;51.450;9.254;2024-03-08T11:01:41;5.90;99.90
10905;DHT22;5505;51.450;9.254;2024-03-08T11:04:28;5.90;99.90
10905;DHT22;5505;51.450;9.254;2024-03-08T11:07:15;6.70;99.90
10905;DHT22;5505;51.450;9.254;2024-03-08T11:10:18;6.10;99.90
10905;DHT22;5505;51.450;9.254;2024-03-08T11:16:45;5.90;99.90
10905;DHT22;5505;51.450;9.254;2024-03-08T11:19:32;5.80;99.90
10905;DHT22;5505;51.450;9.254;2024-03-08T11:22:21;5.70;99.90
10905;DHT22;5505;51.450;9.254;2024-03-08T11:25:09;5.90;99.90
10905;DHT22;5505;51.450;9.254;2024-03-08T11:28:08;6.10;99.90
10905;DHT22;5505;51.450;9.254;2024-03-08T11:31:23;6.20;99.90
10905;DHT22;5505;51.450;9.254;2024-03-08T11:34:16;5.90;99.90
10905;DHT22;5505;51.450;9.254;2024-03-08T11:37:05;5.80;99.90
10905;DHT22;5505;51.450;9.254;2024-03-08T11:39:55;6.50;99.90
10905;DHT22;5505;51.450;9.254;2024-03-08T11:42:45;6.60;99.90
10905;DHT22;5505;51.450;9.254;2024-03-08T11:45:34;6.30;99.90
10905;DHT22;5505;51.450;9.254;2024-03-08T11:48:21;6.50;99.90
10905;DHT22;5505;51.450;9.254;2024-03-08T11:51:11;6.40;99.90
10905;DHT22;5505;51.450;9.254;2024-03-08T11:53:59;6.50;99.90
10905;DHT22;5505;51.450;9.254;2024-03-08T11:56:46;6.50;99.90
10905;DHT22;5505;51.450;9.254;2024-03-08T11:59:33;6.50;99.90
10905;DHT22;5505;51.450;9.254;2024-03-08T12:02:20;7.80;99.90
10905;DHT22;5505;51.450;9.254;2024-03-08T12:05:08;6.20;99.90
10905;DHT22;5505;51.450;9.254;2024-03-08T12:07:58;6.30;99.90
10905;DHT22;5505;51.450;9.254;2024-03-08T12:10:44;6.50;99.90
10905;DHT22;5505;51.450;9.254;2024-03-08T12:13:33;7.60;99.90
10905;DHT22;5505;51.450;9.254;2024-03-08T12:16:20;6.60;99.90
10905;DHT22;5505;51.450;9.254;2024-03-08T12:19:07;6.60;99.90
10905;DHT22;5505;51.450;9.254;2024-03-08T12:21:55;6.70;99.90
10905;DHT22;5505;51.450;9.254;2024-03-08T12:24:43;6.60;99.90
10905;DHT22;5505;51.450;9.254;2024-03-08T12:27:30;6.70;99.90
10905;DHT22;5505;51.450;9.254;2024-03-08T12:30:19;6.70;99.90
10905;DHT22;5505;51.450;9.254;2024-03-08T12:33:06;6.70;99.90
10905;DHT22;5505;51.450;9.254;2024-03-08T12:35:56;6.70;99.90
10905;DHT22;5505;51.450;9.254;2024-03-08T12:38:44;6.80;99.90
10905;DHT22;5505;51.450;9.254;2024-03-08T12:41:39;6.80;99.90
10905;DHT22;5505;51.450;9.254;2024-03-08T12:44:26;6.70;99.90
10905;DHT22;5505;51.450;9.254;2024-03-08T12:47:14;8.00;99.90
10905;DHT22;5505;51.450;9.254;2024-03-08T12:50:01;6.90;99.90
10905;DHT22;5505;51.450;9.254;2024-03-08T12:52:48;8.30;99.90
10905;DHT22;5505;51.450;9.254;2024-03-08T12:55:35;7.00;99.90
10905;DHT22;5505;51.450;9.254;2024-03-08T12:58:23;6.90;99.90
10905;DHT22;5505;51.450;9.254;2024-03-08T13:01:11;7.00;99.90
10905;DHT22;5505;51.450;9.254;2024-03-08T13:03:59;7.00;99.90
10905;DHT22;5505;51.450;9.254;2024-03-08T13:06:47;7.10;99.90
10905;DHT22;5505;51.450;9.254;2024-03-08T13:09:35;7.20;99.90
10905;DHT22;5505;51.450;9.254;2024-03-08T13:12:23;7.30;99.90
10905;DHT22;5505;51.450;9.254;2024-03-08T13:15:12;7.30;99.90
10905;DHT22;5505;51.450;9.254;2024-03-08T13:18:05;7.30;99.90
10905;DHT22;5505;51.450;9.254;2024-03-08T13:20:54;7.30;99.90
10905;DHT22;5505;51.450;9.254;2024-03-08T13:23:43;7.30;99.90
10905;DHT22;5505;51.450;9.254;2024-03-08T13:26:31;7.30;99.90
10905;DHT22;5505;51.450;9.254;2024-03-08T13:29:19;7.30;99.90
10905;DHT22;5505;51.450;9.254;2024-03-08T13:32:08;7.20;99.90
10905;DHT22;5505;51.450;9.254;2024-03-08T13:34:57;8.40;99.90
10905;DHT22;5505;51.450;9.254;2024-03-08T13:37:44;7.10;99.90
10905;DHT22;5505;51.450;9.254;2024-03-08T13:40:31;7.10;99.90
10905;DHT22;5505;51.450;9.254;2024-03-08T13:43:18;7.20;99.90
10905;DHT22;5505;51.450;9.254;2024-03-08T13:46:04;7.30;99.90
10905;DHT22;5505;51.450;9.254;2024-03-08T13:48:54;7.30;99.90
10905;DHT22;5505;51.450;9.254;2024-03-08T13:51:41;7.30;99.90
10905;DHT22;5505;51.450;9.254;2024-03-08T13:54:28;7.20;99.90
10905;DHT22;5505;51.450;9.254;2024-03-08T13:57:16;7.20;99.90
10905;DHT22;5505;51.450;9.254;2024-03-08T14:00:05;7.30;99.90
10905;DHT22;5505;51.450;9.254;2024-03-08T14:02:52;7.30;99.90
10905;DHT22;5505;51.450;9.254;2024-03-08T14:05:42;7.30;99.90
10905;DHT22;5505;51.450;9.254;2024-03-08T14:08:28;7.40;99.90
10905;DHT22;5505;51.450;9.254;2024-03-08T14:11:18;7.40;99.90
10905;DHT22;5505;51.450;9.254;2024-03-08T14:14:05;7.40;99.90
10905;DHT22;5505;51.450;9.254;2024-03-08T14:16:52;7.30;99.90
10905;DHT22;5505;51.450;9.254;2024-03-08T14:19:40;7.40;99.90
10905;DHT22;5505;51.450;9.254;2024-03-08T14:22:28;5.30;99.90
10905;DHT22;5505;51.450;9.254;2024-03-08T14:25:17;7.50;99.90
10905;DHT22;5505;51.450;9.254;2024-03-08T14:28:04;7.50;99.90
10905;DHT22;5505;51.450;9.254;2024-03-08T14:30:52;7.50;99.90
10905;DHT22;5505;51.450;9.254;2024-03-08T14:33:39;8.80;99.90
10905;DHT22;5505;51.450;9.254;2024-03-08T14:36:28;7.30;99.90
10905;DHT22;5505;51.450;9.254;2024-03-08T14:39:16;7.40;99.90
10905;DHT22;5505;51.450;9.254;2024-03-08T14:42:07;7.40;99.90
10905;DHT22;5505;51.450;9.254;2024-03-08T14:44:58;8.90;99.90
10905;DHT22;5505;51.450;9.254;2024-03-08T14:47:46;7.40;99.90
10905;DHT22;5505;51.450;9.254;2024-03-08T14:50:35;7.30;99.90
10905;DHT22;5505;51.450;9.254;2024-03-08T14:53:23;7.30;99.90
10905;DHT22;5505;51.450;9.254;2024-03-08T14:56:11;7.30;99.90
10905;DHT22;5505;51.450;9.254;2024-03-08T14:59:01;7.40;99.90
10905;DHT22;5505;51.450;9.254;2024-03-08T15:01:50;7.40;99.90
10905;DHT22;5505;51.450;9.254;2024-03-08T15:04:37;7.40;99.90
10905;DHT22;5505;51.450;9.254;2024-03-08T15:07:26;7.30;99.90
10905;DHT22;5505;51.450;9.254;2024-03-08T15:10:15;7.30;99.90
10905;DHT22;5505;51.450;9.254;2024-03-08T15:13:07;7.40;99.90
10905;DHT22;5505;51.450;9.254;2024-03-08T15:16:01;7.30;99.90
10905;DHT22;5505;51.450;9.254;2024-03-08T15:18:51;7.30;99.90
10905;DHT22;5505;51.450;9.254;2024-03-08T15:21:39;7.80;99.90
10905;DHT22;5505;51.450;9.254;2024-03-08T15:24:26;7.30;99.90
10905;DHT22;5505;51.450;9.254;2024-03-08T15:27:14;7.30;99.90
10905;DHT22;5505;51.450;9.254;2024-03-08T15:30:02;9.00;99.90
10905;DHT22;5505;51.450;9.254;2024-03-08T15:32:53;7.30;99.90
10905;DHT22;5505;51.450;9.254;2024-03-08T15:35:42;8.40;99.90
10905;DHT22;5505;51.450;9.254;2024-03-08T15:38:34;8.40;99.90
10905;DHT22;5505;51.450;9.254;2024-03-08T15:41:21;8.10;99.90
10905;DHT22;5505;51.450;9.254;2024-03-08T15:44:07;7.20;99.90
10905;DHT22;5505;51.450;9.254;2024-03-08T15:46:59;7.80;99.90
10905;DHT22;5505;51.450;9.254;2024-03-08T15:49:46;7.20;99.90
10905;DHT22;5505;51.450;9.254;2024-03-08T15:52:33;7.20;99.90
10905;DHT22;5505;51.450;9.254;2024-03-08T15:55:20;8.60;99.90
10905;DHT22;5505;51.450;9.254;2024-03-08T15:58:09;7.20;99.90
10905;DHT22;5505;51.450;9.254;2024-03-08T16:00:56;7.20;99.90
10905;DHT22;5505;51.450;9.254;2024-03-08T16:03:46;7.20;99.90
10905;DHT22;5505;51.450;9.254;2024-03-08T16:06:34;7.20;99.90
10905;DHT22;5505;51.450;9.254;2024-03-08T16:09:22;7.20;99.90
10905;DHT22;5505;51.450;9.254;2024-03-08T16:12:11;7.20;99.90
10905;DHT22;5505;51.450;9.254;2024-03-08T16:14:57;7.20;99.90
10905;DHT22;5505;51.450;9.254;2024-03-08T16:17:44;7.10;99.90
10905;DHT22;5505;51.450;9.254;2024-03-08T16:20:32;7.00;99.90
10905;DHT22;5505;51.450;9.254;2024-03-08T16:23:20;7.00;99.90
10905;DHT22;5505;51.450;9.254;2024-03-08T16:26:07;8.30;99.90
10905;DHT22;5505;51.450;9.254;2024-03-08T16:28:54;6.80;99.90
10905;DHT22;5505;51.450;9.254;2024-03-08T16:31:42;6.80;99.90
10905;DHT22;5505;51.450;9.254;2024-03-08T16:34:30;6.80;99.90
10905;DHT22;5505;51.450;9.254;2024-03-08T16:37:20;6.80;99.90
10905;DHT22;5505;51.450;9.254;2024-03-08T16:40:09;6.80;99.90
10905;DHT22;5505;51.450;9.254;2024-03-08T16:43:00;6.70;99.90
10905;DHT22;5505;51.450;9.254;2024-03-08T16:45:48;6.70;99.90
10905;DHT22;5505;51.450;9.254;2024-03-08T16:48:36;6.70;99.90
10905;DHT22;5505;51.450;9.254;2024-03-08T16:51:23;6.60;99.90
10905;DHT22;5505;51.450;9.254;2024-03-08T16:54:12;6.60;99.90
10905;DHT22;5505;51.450;9.254;2024-03-08T16:57:01;6.60;99.90
10905;DHT22;5505;51.450;9.254;2024-03-08T16:59:49;6.90;99.90
10905;DHT22;5505;51.450;9.254;2024-03-08T17:02:36;6.40;99.90
10905;DHT22;5505;51.450;9.254;2024-03-08T17:05:23;6.30;99.90
10905;DHT22;5505;51.450;9.254;2024-03-08T17:08:13;6.30;99.90
10905;DHT22;5505;51.450;9.254;2024-03-08T17:11:02;6.20;99.90
10905;DHT22;5505;51.450;9.254;2024-03-08T17:13:49;6.10;99.90
10905;DHT22;5505;51.450;9.254;2024-03-08T17:16:36;6.10;99.90
10905;DHT22;5505;51.450;9.254;2024-03-08T17:19:23;6.10;99.90
10905;DHT22;5505;51.450;9.254;2024-03-08T17:22:11;6.00;99.90
10905;DHT22;5505;51.450;9.254;2024-03-08T17:24:58;6.00;99.90
10905;DHT22;5505;51.450;9.254;2024-03-08T17:27:47;6.90;99.90
10905;DHT22;5505;51.450;9.254;2024-03-08T17:30:36;5.90;99.90
10905;DHT22;5505;51.450;9.254;2024-03-08T17:33:23;5.80;99.90
10905;DHT22;5505;51.450;9.254;2024-03-08T17:36:11;5.80;99.90
10905;DHT22;5505;51.450;9.254;2024-03-08T17:39:01;5.80;99.90
10905;DHT22;5505;51.450;9.254;2024-03-08T17:41:48;5.70;99.90
10905;DHT22;5505;51.450;9.254;2024-03-08T17:44:36;6.00;99.90
10905;DHT22;5505;51.450;9.254;2024-03-08T17:47:23;5.60;99.90
10905;DHT22;5505;51.450;9.254;2024-03-08T17:50:11;5.60;99.90
10905;DHT22;5505;51.450;9.254;2024-03-08T17:52:59;5.50;99.90
10905;DHT22;5505;51.450;9.254;2024-03-08T17:55:49;5.40;99.90
10905;DHT22;5505;51.450;9.254;2024-03-08T17:58:37;5.40;99.90
10905;DHT22;5505;51.450;9.254;2024-03-08T18:01:27;5.30;99.90
10905;DHT22;5505;51.450;9.254;2024-03-08T18:04:14;5.20;99.90
10905;DHT22;5505;51.450;9.254;2024-03-08T18:07:01;5.10;99.90
10905;DHT22;5505;51.450;9.254;2024-03-08T18:09:48;4.90;99.90
10905;DHT22;5505;51.450;9.254;2024-03-08T18:12:35;4.60;99.90
10905;DHT22;5505;51.450;9.254;2024-03-08T18:15:21;5.70;99.90